Time;durP1;ratioP1;P1;durP2;ratioP2;P2;SDS_P1;SDS_P2;PMS_P1;PMS_P2;Temp;Humidity;BMP_temperature;BMP_pressure;BME280_temperature;BME280_humidity;BME280_pressure;Samples;Min_cycle;Max_cycle;Signal;HPM_P1;HPM_P2
2022/03/23 00:00:26;;;;;;;12.43;5.57;;;;;;;1.88;100.00;96557.91;4997015;28;20022;-60
2022/03/23 00:02:57;;;;;;;10.52;6.35;;;;;;;2.03;100.00;96548.22;4997154;28;20026;-60
2022/03/23 00:05:23;;;;;;;11.13;6.63;;;;;;;2.03;100.00;96555.31;4996951;28;20061;-61
2022/03/23 00:07:49;;;;;;;12.15;6.55;;;;;;;2.00;100.00;96553.03;4997367;28;20023;-61
2022/03/23 00:10:15;;;;;;;10.57;6.32;;;;;;;1.99;100.00;96568.06;4995626;28;20105;-61
2022/03/23 00:12:42;;;;;;;14.20;6.88;;;;;;;1.96;100.00;96567.63;5012029;28;20109;-62
2022/03/23 00:15:08;;;;;;;12.38;7.28;;;;;;;1.89;100.00;96558.72;4996619;28;20528;-62
2022/03/23 00:17:33;;;;;;;12.68;6.80;;;;;;;1.88;100.00;96565.00;4997005;28;20026;-61
2022/03/23 00:20:05;;;;;;;11.70;7.05;;;;;;;1.87;100.00;96555.44;5018664;28;20061;-61
2022/03/23 00:22:34;;;;;;;12.27;6.65;;;;;;;1.85;100.00;96565.38;5016273;28;20065;-61
2022/03/23 00:24:59;;;;;;;9.10;6.22;;;;;;;1.85;100.00;96570.66;5016052;28;20108;-62
2022/03/23 00:27:25;;;;;;;12.57;6.97;;;;;;;1.84;100.00;96566.34;5015994;28;20041;-61
2022/03/23 00:29:50;;;;;;;15.00;6.53;;;;;;;1.82;100.00;96570.97;5016078;28;20022;-62
2022/03/23 00:32:16;;;;;;;12.07;6.68;;;;;;;1.83;100.00;96565.50;5031254;28;20136;-61
2022/03/23 00:34:41;;;;;;;12.45;6.95;;;;;;;1.82;100.00;96571.81;5015762;28;20030;-60
2022/03/23 00:37:13;;;;;;;11.80;6.28;;;;;;;1.77;100.00;96563.59;5014625;28;20480;-62
2022/03/23 00:39:38;;;;;;;11.40;6.05;;;;;;;1.76;100.00;96563.75;5015882;28;20033;-61
2022/03/23 00:42:04;;;;;;;13.10;6.80;;;;;;;1.82;100.00;96569.16;5015636;28;20022;-61
2022/03/23 00:44:29;;;;;;;11.88;6.18;;;;;;;1.84;100.00;96575.09;5015601;28;20120;-61
2022/03/23 00:46:57;;;;;;;11.30;6.43;;;;;;;1.82;100.00;96570.97;5015738;28;20108;-62
2022/03/23 00:49:23;;;;;;;11.38;6.60;;;;;;;1.81;100.00;96585.19;5015522;28;20029;-61
2022/03/23 00:51:53;;;;;;;14.40;7.47;;;;;;;1.77;100.00;96578.63;5015649;28;20030;-61
2022/03/23 00:54:22;;;;;;;15.07;7.53;;;;;;;1.71;100.00;96580.13;5015600;28;20061;-60
2022/03/23 00:56:50;;;;;;;12.60;6.30;;;;;;;1.62;100.00;96575.88;5015559;28;20030;-59
2022/03/23 00:59:16;;;;;;;14.85;7.63;;;;;;;1.52;100.00;96581.38;5015501;28;20026;-61
2022/03/23 01:01:48;;;;;;;15.35;7.65;;;;;;;1.43;100.00;96574.47;4997712;28;20081;-60
2022/03/23 01:04:19;;;;;;;16.98;7.55;;;;;;;1.36;100.00;96565.59;5015268;28;20603;-59
2022/03/23 01:06:47;;;;;;;16.33;8.10;;;;;;;1.30;100.00;96561.84;5015320;28;20042;-61
2022/03/23 01:09:13;;;;;;;14.38;7.93;;;;;;;1.23;100.00;96555.56;5014708;28;20022;-61
2022/03/23 01:11:39;;;;;;;13.73;7.60;;;;;;;1.17;100.00;96550.97;5015199;28;20101;-61
2022/03/23 01:14:06;;;;;;;15.18;8.23;;;;;;;1.08;100.00;96547.53;5015060;28;20033;-58
2022/03/23 01:16:37;;;;;;;14.13;7.78;;;;;;;0.96;100.00;96535.69;5015129;28;20088;-60
2022/03/23 01:19:02;;;;;;;13.77;6.93;;;;;;;0.96;100.00;96534.88;5015207;28;20052;-60
2022/03/23 01:21:37;;;;;;;15.23;7.72;;;;;;;0.97;100.00;96525.97;5014955;28;20029;-62
2022/03/23 01:24:02;;;;;;;11.57;7.47;;;;;;;0.98;100.00;96525.00;5013862;28;20380;-61
2022/03/23 01:26:31;;;;;;;15.27;7.25;;;;;;;0.92;100.00;96510.66;5014899;28;20034;-61
2022/03/23 01:28:56;;;;;;;12.65;7.35;;;;;;;0.85;100.00;96510.50;5014724;28;20037;-60
2022/03/23 01:31:24;;;;;;;13.63;7.30;;;;;;;0.78;100.00;96506.91;5014906;28;20026;-61
2022/03/23 01:33:59;;;;;;;12.40;7.50;;;;;;;0.80;100.00;96507.56;5014813;28;20029;-62
2022/03/23 01:36:25;;;;;;;15.82;7.50;;;;;;;0.88;100.00;96504.09;5013661;28;20391;-61
2022/03/23 01:38:53;;;;;;;12.80;7.03;;;;;;;0.95;100.00;96496.28;5013594;28;20500;-60
2022/03/23 01:41:19;;;;;;;15.52;8.40;;;;;;;0.99;100.00;96495.81;5014412;28;20443;-61
2022/03/23 01:43:47;;;;;;;13.50;7.90;;;;;;;0.96;100.00;96496.13;5014368;28;20125;-62
2022/03/23 01:46:27;;;;;;;12.77;7.32;;;;;;;0.84;100.00;96493.03;5014635;28;20030;-60
2022/03/23 01:48:52;;;;;;;16.77;7.25;;;;;;;0.76;100.00;96500.13;4996992;28;20109;-61
2022/03/23 01:51:21;;;;;;;14.27;7.80;;;;;;;0.64;100.00;96497.03;5014758;28;20121;-62
2022/03/23 01:53:49;;;;;;;14.95;8.23;;;;;;;0.53;100.00;96487.66;5014139;28;20053;-61
2022/03/23 01:56:22;;;;;;;16.88;7.95;;;;;;;0.49;100.00;96491.63;5014508;28;20017;-60
2022/03/23 01:58:54;;;;;;;;;;;;;;;0.43;100.00;96483.56;5014909;28;20032;-61
2022/03/23 02:01:19;;;;;;;14.60;7.88;;;;;;;0.38;100.00;96484.09;5014178;28;19913;-60
2022/03/23 02:03:54;;;;;;;18.52;7.57;;;;;;;0.37;100.00;96482.44;5013096;28;20059;-61
2022/03/23 02:06:24;;;;;;;15.40;8.63;;;;;;;0.28;100.00;96471.06;5014121;28;20029;-61
2022/03/23 02:08:53;;;;;;;16.15;8.45;;;;;;;0.16;100.00;96467.16;5014166;28;20021;-61
2022/03/23 02:11:26;;;;;;;15.85;7.85;;;;;;;0.04;100.00;96465.84;5014392;28;20384;-61
2022/03/23 02:13:53;;;;;;;16.83;8.13;;;;;;;-0.09;100.00;96457.63;5014067;28;20083;-61
2022/03/23 02:16:19;;;;;;;11.77;7.30;;;;;;;-0.20;100.00;96450.03;5014070;28;20100;-61
2022/03/23 02:18:44;;;;;;;13.68;7.93;;;;;;;-0.30;100.00;96447.56;5013759;28;20018;-61
2022/03/23 02:21:14;;;;;;;13.82;8.40;;;;;;;-0.36;100.00;96445.56;5013039;28;20473;-60
2022/03/23 02:23:48;;;;;;;14.10;7.38;;;;;;;-0.41;100.00;96429.47;5013835;28;20047;-60
2022/03/23 02:26:20;;;;;;;14.60;8.13;;;;;;;-0.44;100.00;96437.66;5013780;28;20026;-61
2022/03/23 02:28:48;;;;;;;12.95;7.43;;;;;;;-0.44;100.00;96424.50;5012673;28;20480;-56
2022/03/23 02:31:16;;;;;;;14.25;7.95;;;;;;;-0.43;100.00;96426.19;5013615;28;20088;-60
2022/03/23 02:33:41;;;;;;;15.30;7.78;;;;;;;-0.40;100.00;96413.50;5013900;28;20393;-61
2022/03/23 02:36:07;;;;;;;12.50;7.63;;;;;;;-0.40;100.00;96417.94;5013629;28;20037;-62
2022/03/23 02:38:32;;;;;;;14.00;8.10;;;;;;;-0.46;100.00;96411.50;5013645;28;20435;-61
2022/03/23 02:41:00;;;;;;;12.95;8.07;;;;;;;-0.51;100.00;96423.53;5013353;28;20032;-61
2022/03/23 02:43:25;;;;;;;12.77;7.88;;;;;;;-0.59;100.00;96412.00;5013314;28;20029;-63
2022/03/23 02:45:54;;;;;;;16.73;8.45;;;;;;;-0.70;100.00;96409.69;5013342;28;20546;-61
2022/03/23 02:48:19;;;;;;;14.95;7.95;;;;;;;-0.76;100.00;96407.72;5013517;28;20025;-61
2022/03/23 02:50:54;;;;;;;16.77;8.65;;;;;;;-0.82;100.00;96399.63;5013558;28;20048;-61
2022/03/23 03:01:52;;;;;;;13.30;7.57;;;;;;;-0.79;100.00;96379.09;5013339;28;20107;-61
2022/03/23 03:04:21;;;;;;;14.48;7.50;;;;;;;-0.75;100.00;96369.91;4995523;28;20117;-61
2022/03/23 03:06:48;;;;;;;17.58;8.45;;;;;;;-0.78;100.00;96372.00;5013019;28;20109;-61
2022/03/23 03:09:15;;;;;;;14.10;8.20;;;;;;;-0.82;100.00;96365.44;5013188;28;20033;-61
2022/03/23 03:11:47;;;;;;;14.32;8.18;;;;;;;-0.88;100.00;96367.72;5011766;28;20029;-61
2022/03/23 03:14:12;;;;;;;16.53;7.90;;;;;;;-0.95;100.00;96360.66;5012984;28;20121;-61
2022/03/23 03:16:47;;;;;;;14.48;8.15;;;;;;;-0.99;100.00;96349.63;4995404;28;20319;-61
2022/03/23 03:19:15;;;;;;;15.43;7.80;;;;;;;-1.00;100.00;96352.41;4995117;28;20036;-61
2022/03/23 03:21:47;;;;;;;13.98;8.07;;;;;;;-0.96;100.00;96356.41;5012020;28;20029;-61
2022/03/23 03:24:15;;;;;;;14.23;7.78;;;;;;;-0.95;100.00;96353.59;5012775;28;20055;-59
2022/03/23 03:26:41;;;;;;;15.00;7.85;;;;;;;-0.99;100.00;96357.53;5012696;28;20029;-61
2022/03/23 03:29:09;;;;;;;16.10;8.73;;;;;;;-1.01;100.00;96356.03;4995254;28;20488;-61
2022/03/23 03:31:35;;;;;;;16.58;8.55;;;;;;;-1.07;100.00;96354.06;5012452;28;20026;-61
2022/03/23 03:34:00;;;;;;;15.07;8.63;;;;;;;-1.17;100.00;96348.97;4995585;28;20499;-61
2022/03/23 03:36:25;;;;;;;19.42;8.65;;;;;;;-1.16;100.00;96342.72;5012736;28;20496;-61
2022/03/23 03:38:54;;;;;;;16.63;8.63;;;;;;;-1.13;100.00;96344.19;4995138;28;20036;-61
2022/03/23 03:41:20;;;;;;;18.05;8.45;;;;;;;-1.16;100.00;96345.34;5012533;28;20495;-59
2022/03/23 03:43:46;;;;;;;13.77;8.52;;;;;;;-1.25;100.00;96336.59;4999532;28;20049;-60
2022/03/23 03:46:11;;;;;;;14.68;8.40;;;;;;;-1.28;100.00;96336.94;5032239;28;20125;-60
2022/03/23 03:48:42;;;;;;;16.90;7.75;;;;;;;-1.29;100.00;96337.09;5014759;28;20119;-61
2022/03/23 03:51:14;;;;;;;15.15;8.45;;;;;;;-1.31;100.00;96329.34;5032290;28;20025;-60
2022/03/23 03:53:42;;;;;;;18.25;8.23;;;;;;;-1.32;100.00;96332.97;5028169;28;20416;-60
2022/03/23 03:56:09;;;;;;;14.30;8.60;;;;;;;-1.34;100.00;96332.31;5032117;28;20595;-61
2022/03/23 03:58:36;;;;;;;15.02;8.23;;;;;;;-1.38;100.00;96333.63;5028221;28;20422;-61
2022/03/23 04:01:01;;;;;;;16.63;8.57;;;;;;;-1.36;100.00;96336.91;5030887;28;20029;-61
2022/03/23 04:03:34;;;;;;;19.27;8.73;;;;;;;-1.35;100.00;96338.56;5031907;28;20027;-61
2022/03/23 04:05:59;;;;;;;;;;;;;;;-1.39;100.00;96334.59;5032651;28;20025;-61
2022/03/23 04:08:25;;;;;;;16.20;7.80;;;;;;;-1.39;100.00;96325.91;5032317;28;19931;-62
2022/03/23 04:10:50;;;;;;;14.27;8.20;;;;;;;-1.37;100.00;96331.81;5031966;28;20083;-61
2022/03/23 04:13:15;;;;;;;14.82;7.63;;;;;;;-1.32;100.00;96332.97;5031906;28;20021;-61
2022/03/23 04:15:52;;;;;;;15.02;7.72;;;;;;;-1.23;100.00;96332.00;5032159;28;20076;-61
2022/03/23 04:18:17;;;;;;;15.35;8.30;;;;;;;-1.27;100.00;96328.06;5032124;28;20033;-61
2022/03/23 04:20:45;;;;;;;15.93;7.97;;;;;;;-1.30;100.00;96330.19;5031928;28;20068;-61
2022/03/23 04:23:20;;;;;;;17.80;8.30;;;;;;;-1.38;100.00;96331.00;5014261;28;20038;-61
2022/03/23 04:25:48;;;;;;;13.70;8.10;;;;;;;-1.34;100.00;96331.50;5031832;28;20457;-61
2022/03/23 04:28:14;;;;;;;15.85;8.20;;;;;;;-1.31;100.00;96328.53;5031636;28;20472;-61
2022/03/23 04:30:41;;;;;;;15.02;8.27;;;;;;;-1.31;100.00;96331.97;5031961;28;20026;-61
2022/03/23 04:33:10;;;;;;;17.80;8.88;;;;;;;-1.36;100.00;96331.66;5031942;28;20060;-60
2022/03/23 04:35:38;;;;;;;15.20;7.85;;;;;;;-1.35;100.00;96333.28;5031948;28;20116;-60
2022/03/23 04:38:04;;;;;;;13.63;8.18;;;;;;;-1.41;100.00;96333.94;5031925;28;20033;-60
2022/03/23 04:40:30;;;;;;;16.92;8.90;;;;;;;-1.43;100.00;96338.53;5013987;28;20075;-60
2022/03/23 04:42:58;;;;;;;15.27;8.27;;;;;;;-1.48;100.00;96332.94;5031745;28;20067;-58
2022/03/23 04:45:24;;;;;;;15.32;8.73;;;;;;;-1.55;100.00;96335.38;5016734;28;20053;-58
2022/03/23 04:47:52;;;;;;;14.23;8.10;;;;;;;-1.62;100.00;96331.75;5015658;28;20029;-60
2022/03/23 04:50:24;;;;;;;14.73;8.52;;;;;;;-1.65;100.00;96332.03;4998122;28;20033;-58
2022/03/23 04:52:52;;;;;;;16.35;8.45;;;;;;;-1.69;100.00;96332.53;5015573;28;20393;-60
2022/03/23 04:55:23;;;;;;;15.45;8.82;;;;;;;-1.73;100.00;96326.78;5015506;28;20515;-58
2022/03/23 04:57:48;;;;;;;16.25;9.23;;;;;;;-1.78;100.00;96318.53;5015518;28;20037;-61
2022/03/23 05:00:16;;;;;;;16.88;8.70;;;;;;;-1.78;100.00;96316.72;4997813;28;20495;-61
2022/03/23 05:02:45;;;;;;;14.38;8.30;;;;;;;-1.77;100.00;96315.75;5015374;28;20500;-61
2022/03/23 05:05:17;;;;;;;18.13;8.18;;;;;;;-1.75;100.00;96316.41;5015366;28;20045;-61
2022/03/23 05:07:44;;;;;;;19.58;9.20;;;;;;;-1.77;100.00;96304.41;5014123;28;20084;-61
2022/03/23 05:10:14;;;;;;;18.05;8.75;;;;;;;-1.79;100.00;96309.84;4997829;28;20021;-61
2022/03/23 05:12:41;;;;;;;15.02;8.50;;;;;;;-1.76;100.00;96304.25;5014088;28;20519;-61
2022/03/23 05:15:08;;;;;;;14.82;8.52;;;;;;;-1.69;100.00;96293.13;5015153;28;20433;-61
2022/03/23 05:17:34;;;;;;;13.07;8.63;;;;;;;-1.67;100.00;96302.50;5015198;28;20022;-61
2022/03/23 05:20:01;;;;;;;16.48;8.85;;;;;;;-1.67;100.00;96299.03;5015019;28;20116;-61
2022/03/23 05:22:27;;;;;;;13.82;7.90;;;;;;;-1.69;100.00;96299.19;5015071;28;20029;-61
2022/03/23 05:24:55;;;;;;;14.82;8.20;;;;;;;-1.70;100.00;96302.81;5015023;28;20412;-61
2022/03/23 05:27:27;;;;;;;18.25;8.82;;;;;;;-1.73;100.00;96297.06;5013746;28;20029;-56
2022/03/23 05:29:52;;;;;;;14.18;8.43;;;;;;;-1.75;100.00;96300.66;5008516;28;20021;-61
2022/03/23 05:32:18;;;;;;;15.75;8.48;;;;;;;-1.75;100.00;96295.38;5014876;28;20024;-59
2022/03/23 05:35:08;;;;;;;16.80;8.13;;;;;;;-1.79;100.00;96298.50;5014593;28;20022;-58
2022/03/23 05:37:33;;;;;;;15.80;8.63;;;;;;;-1.85;100.00;96299.13;5013741;28;20133;-60
2022/03/23 05:40:00;;;;;;;16.58;8.57;;;;;;;-1.86;100.00;96287.81;5014780;28;20105;-59
2022/03/23 05:42:28;;;;;;;14.57;8.55;;;;;;;-1.87;100.00;96291.41;5014710;28;20080;-61
2022/03/23 05:44:54;;;;;;;15.18;8.02;;;;;;;-1.84;100.00;96287.66;5014823;28;20053;-63
2022/03/23 05:47:20;;;;;;;19.05;9.43;;;;;;;-1.79;100.00;96278.31;5014505;28;20104;-63
2022/03/23 05:49:46;;;;;;;19.08;8.70;;;;;;;-1.74;100.00;96272.56;4997008;28;20109;-63
2022/03/23 05:52:18;;;;;;;14.70;8.95;;;;;;;-1.66;100.00;96277.03;5014472;28;20472;-62
2022/03/23 05:54:43;;;;;;;18.08;9.43;;;;;;;-1.60;100.00;96271.97;4996861;28;20493;-63
2022/03/23 05:57:08;;;;;;;13.38;7.90;;;;;;;-1.48;100.00;96262.81;5014244;28;20026;-63
2022/03/23 05:59:34;;;;;;;16.63;9.50;;;;;;;-1.31;100.00;96260.19;4996485;28;20542;-63
2022/03/23 06:02:00;;;;;;;19.83;8.90;;;;;;;-1.22;100.00;96256.59;4996917;28;20041;-63
2022/03/23 06:04:25;;;;;;;31.80;9.70;;;;;;;-1.10;100.00;96251.84;4996555;28;20057;-63
2022/03/23 06:06:52;;;;;;;43.70;10.80;;;;;;;-1.05;100.00;96250.38;5014401;28;20061;-63
2022/03/23 06:09:18;;;;;;;19.90;9.55;;;;;;;-0.97;100.00;96246.94;4996501;28;20033;-63
2022/03/23 06:11:44;;;;;;;18.10;9.45;;;;;;;-0.91;100.00;96241.81;5012841;28;20029;-63
2022/03/23 06:14:12;;;;;;;17.27;9.52;;;;;;;-0.83;100.00;96245.44;5013779;28;20389;-63
2022/03/23 06:16:40;;;;;;;21.27;9.07;;;;;;;-0.75;100.00;96235.75;5013943;28;20026;-63
2022/03/23 06:19:05;;;;;;;21.52;10.00;;;;;;;-0.70;100.00;96230.78;5003914;28;20030;-69
2022/03/23 06:21:30;;;;;;;19.33;9.75;;;;;;;-0.59;100.00;96229.63;4989451;28;20497;-63
2022/03/23 06:23:56;;;;;;;19.75;9.23;;;;;;;-0.54;100.00;96222.06;5013786;28;20144;-63
2022/03/23 06:26:21;;;;;;;21.02;9.68;;;;;;;-0.39;100.00;96223.00;5013705;28;20026;-63
2022/03/23 06:28:47;;;;;;;17.00;9.80;;;;;;;-0.20;100.00;96221.78;5013475;28;20442;-63
2022/03/23 06:31:15;;;;;;;18.65;9.65;;;;;;;-0.09;100.00;96213.50;5013582;28;20096;-61
2022/03/23 06:33:40;;;;;;;17.13;8.95;;;;;;;0.04;100.00;96206.88;5012441;28;20672;-61
2022/03/23 06:36:08;;;;;;;17.80;9.75;;;;;;;0.15;100.00;96206.50;5013528;28;20104;-61
2022/03/23 06:38:34;;;;;;;19.95;9.90;;;;;;;0.25;100.00;96204.47;5013864;28;20392;-61
2022/03/23 06:41:04;;;;;;;20.45;10.15;;;;;;;0.49;100.00;96201.69;4995711;28;20033;-61
2022/03/23 06:43:33;;;;;;;20.75;9.48;;;;;;;0.74;100.00;96201.50;5012894;28;20105;-61
2022/03/23 06:46:05;;;;;;;16.85;9.10;;;;;;;0.99;100.00;96199.50;5013403;28;20026;-61
2022/03/23 06:48:33;;;;;;;17.13;10.13;;;;;;;1.32;100.00;96194.75;5013319;28;20049;-61
2022/03/23 06:51:01;;;;;;;23.38;9.40;;;;;;;1.67;100.00;96194.03;5013330;28;20037;-60
2022/03/23 06:53:30;;;;;;;18.00;9.40;;;;;;;2.07;100.00;96181.38;5013209;28;20115;-61
2022/03/23 06:55:56;;;;;;;20.35;8.93;;;;;;;2.50;100.00;96176.97;4995342;28;20073;-61
2022/03/23 06:58:21;;;;;;;18.67;9.45;;;;;;;2.92;100.00;96181.44;5013171;28;20025;-60
2022/03/23 07:00:57;;;;;;;21.95;9.48;;;;;;;3.44;100.00;96208.53;5013121;28;20050;-61
2022/03/23 07:03:26;;;;;;;18.20;9.00;;;;;;;3.94;100.00;96241.06;5012874;28;20481;-61
2022/03/23 07:05:58;;;;;;;15.50;8.73;;;;;;;4.42;100.00;96279.06;5013143;28;20117;-61
2022/03/23 07:11:07;;;;;;;16.13;8.38;;;;;;;5.24;100.00;96393.16;5013340;28;20028;-60
2022/03/23 07:13:33;;;;;;;14.68;7.97;;;;;;;5.57;100.00;96455.38;5012940;28;20458;-60
2022/03/23 07:15:58;;;;;;;17.58;8.63;;;;;;;5.89;100.00;96507.00;5012594;28;20492;-61
2022/03/23 07:18:30;;;;;;;20.33;8.75;;;;;;;6.30;100.00;96549.50;4994968;28;20551;-61
2022/03/23 07:20:58;;;;;;;16.15;8.75;;;;;;;6.65;100.00;96577.59;5012465;28;20491;-61
2022/03/23 07:23:26;;;;;;;15.88;8.95;;;;;;;6.90;100.00;96599.13;4995189;28;20038;-61
2022/03/23 07:25:57;;;;;;;14.57;8.75;;;;;;;7.14;100.00;96636.81;4995104;28;20432;-61
2022/03/23 07:28:31;;;;;;;18.23;8.38;;;;;;;7.43;100.00;96644.41;5011746;28;20025;-61
2022/03/23 07:31:00;;;;;;;15.82;8.07;;;;;;;7.83;100.00;96658.50;5012667;28;20026;-61
2022/03/23 07:33:25;;;;;;;24.55;8.88;;;;;;;8.15;100.00;96671.97;5012421;28;20447;-61
2022/03/23 07:35:51;;;;;;;16.17;8.60;;;;;;;8.30;100.00;96682.38;5012608;28;20058;-61
2022/03/23 07:38:17;;;;;;;19.02;8.82;;;;;;;8.33;100.00;96696.09;5012594;28;20025;-61
2022/03/23 07:40:45;;;;;;;18.38;9.40;;;;;;;8.50;100.00;96704.50;5012434;28;20022;-61
2022/03/23 07:43:11;;;;;;;16.50;9.52;;;;;;;8.52;100.00;96720.31;5012392;28;20036;-61
2022/03/23 07:45:36;;;;;;;15.50;8.90;;;;;;;8.71;100.00;96727.44;5032231;28;20439;-61
2022/03/23 07:48:01;;;;;;;16.73;9.60;;;;;;;8.89;100.00;96737.38;5032048;28;20059;-61
2022/03/23 07:50:27;;;;;;;15.70;9.13;;;;;;;9.15;100.00;96749.81;5030427;28;20025;-62
2022/03/23 07:52:53;;;;;;;25.60;11.80;;;;;;;9.34;99.30;96754.22;5009882;28;20063;-62
2022/03/23 07:55:21;;;;;;;18.90;11.85;;;;;;;9.63;97.70;96760.78;5027720;28;20106;-62
2022/03/23 07:57:46;;;;;;;21.48;12.50;;;;;;;10.01;96.00;96770.56;5027852;28;20112;-61
2022/03/23 08:00:13;;;;;;;21.83;10.98;;;;;;;10.34;93.81;96776.44;5025740;28;20109;-62
2022/03/23 08:02:39;;;;;;;19.10;10.70;;;;;;;10.63;91.93;96784.78;4979903;28;20357;-62
2022/03/23 08:05:05;;;;;;;20.85;9.93;;;;;;;10.68;89.15;96790.31;5027737;28;20448;-62
2022/03/23 08:07:32;;;;;;;15.57;9.45;;;;;;;10.51;88.48;96798.09;5027660;28;20088;-61
2022/03/23 08:09:58;;;;;;;17.02;10.48;;;;;;;10.60;87.63;96804.81;5025429;28;20545;-58
2022/03/23 08:12:23;;;;;;;17.63;10.15;;;;;;;10.74;87.82;96808.16;5026036;28;20112;-61
2022/03/23 08:14:48;;;;;;;16.92;10.38;;;;;;;10.85;86.97;96811.94;5025305;28;20511;-60
2022/03/23 08:17:14;;;;;;;15.70;10.07;;;;;;;11.14;85.60;96813.06;5026966;28;20021;-61
2022/03/23 08:19:39;;;;;;;14.82;9.45;;;;;;;11.29;84.48;96808.94;5031696;28;20431;-62
2022/03/23 08:22:05;;;;;;;19.67;11.07;;;;;;;11.46;85.09;96822.53;5014716;28;20026;-61
2022/03/23 08:24:34;;;;;;;19.42;10.85;;;;;;;11.52;84.10;96820.81;5030482;28;20132;-61
2022/03/23 08:27:02;;;;;;;17.73;10.48;;;;;;;11.50;83.98;96820.19;5033399;28;20029;-61
2022/03/23 08:29:28;;;;;;;22.00;10.52;;;;;;;11.70;84.52;96818.03;5030405;28;20030;-61
2022/03/23 08:31:53;;;;;;;18.45;10.52;;;;;;;12.01;82.73;96814.28;5002621;28;20437;-61
2022/03/23 08:34:19;;;;;;;17.30;10.48;;;;;;;11.97;81.89;96818.50;5036734;28;20028;-61
2022/03/23 08:36:47;;;;;;;19.42;11.50;;;;;;;11.98;81.46;96819.31;5032846;28;20033;-60
2022/03/23 08:39:15;;;;;;;17.20;11.20;;;;;;;12.24;81.93;96820.75;5014269;28;20432;-61
2022/03/23 08:41:41;;;;;;;17.42;10.93;;;;;;;12.65;81.00;96822.50;5028435;28;20109;-58
2022/03/23 08:44:06;;;;;;;21.10;11.70;;;;;;;-144.43;100.00;64487.81;5026647;28;20132;-61
2022/03/23 08:46:35;;;;;;;16.27;11.05;;;;;;;-144.43;100.00;64487.81;4994975;28;20433;-62
2022/03/23 08:49:00;;;;;;;17.67;11.45;;;;;;;-144.43;100.00;64487.81;5012105;28;21052;-61
2022/03/23 08:51:25;;;;;;;18.00;10.57;;;;;;;-144.43;100.00;64487.81;5012635;28;20081;-61
2022/03/23 08:54:10;;;;;;;15.82;10.65;;;;;;;-144.43;100.00;64487.81;5015702;28;20487;-61
2022/03/23 08:56:35;;;;;;;20.15;12.00;;;;;;;-144.43;100.00;64487.81;5013771;28;20477;-59
2022/03/23 08:59:00;;;;;;;16.80;10.50;;;;;;;-144.43;100.00;64487.81;5017663;28;20045;-61
2022/03/23 09:01:26;;;;;;;17.63;10.90;;;;;;;-144.43;100.00;64487.81;5020101;28;20033;-61
2022/03/23 09:04:00;;;;;;;17.25;11.52;;;;;;;-144.43;100.00;64487.81;5021533;28;21794;-61
2022/03/23 09:06:25;;;;;;;20.00;11.75;;;;;;;-144.43;100.00;64487.81;5019381;28;20112;-61
2022/03/23 09:08:55;;;;;;;18.77;11.13;;;;;;;-144.43;100.00;64487.81;5003584;28;20069;-61
2022/03/23 09:11:22;;;;;;;18.58;11.23;;;;;;;-144.43;100.00;64487.81;4982768;28;20030;-63
2022/03/23 09:13:48;;;;;;;19.80;11.60;;;;;;;-144.43;100.00;64487.81;5005826;28;20023;-61
2022/03/23 09:16:13;;;;;;;16.33;10.70;;;;;;;-144.43;100.00;64487.81;4994322;28;20403;-61
2022/03/23 09:18:39;;;;;;;15.23;10.65;;;;;;;-144.43;100.00;64487.81;4995344;28;20026;-61
2022/03/23 09:21:04;;;;;;;17.73;11.18;;;;;;;-144.43;100.00;64487.81;4995354;28;20429;-61
2022/03/23 09:23:32;;;;;;;22.20;11.88;;;;;;;-144.43;100.00;64487.81;4995283;28;20050;-61
2022/03/23 09:26:00;;;;;;;16.52;11.82;;;;;;;-144.43;100.00;64487.81;4995072;28;20026;-61
2022/03/23 09:28:25;;;;;;;17.65;11.88;;;;;;;-144.43;100.00;64487.81;4995393;28;20162;-61
2022/03/23 09:30:51;;;;;;;18.02;11.93;;;;;;;-144.43;100.00;64487.81;4994875;28;20718;-61
2022/03/23 09:33:16;;;;;;;18.75;11.85;;;;;;;-144.43;100.00;64487.81;4995147;28;20029;-61
2022/03/23 09:35:49;;;;;;;17.45;11.00;;;;;;;-144.43;100.00;64487.81;4994417;28;20054;-62
2022/03/23 09:38:14;;;;;;;;;;;;;;;-144.43;100.00;64487.81;4995562;28;20596;-61
2022/03/23 09:40:41;;;;;;;18.30;11.50;;;;;;;-144.43;100.00;64487.81;4995384;28;20034;-61
2022/03/23 09:43:09;;;;;;;16.55;11.50;;;;;;;-144.43;100.00;64487.81;4977456;28;20352;-61
2022/03/23 09:48:10;;;;;;;20.20;12.40;;;;;;;-144.43;100.00;64487.81;4994955;28;20062;-61
2022/03/23 09:50:39;;;;;;;15.57;10.85;;;;;;;-144.43;100.00;64487.81;4994791;28;20041;-61
2022/03/23 09:53:04;;;;;;;19.67;12.40;;;;;;;-144.43;100.00;64487.81;4977181;28;20030;-61
2022/03/23 09:55:30;;;;;;;16.02;11.63;;;;;;;-144.43;100.00;64487.81;5003522;28;20036;-62
2022/03/23 09:58:06;;;;;;;17.95;11.90;;;;;;;-144.43;100.00;64487.81;5013501;28;20030;-62
2022/03/23 10:00:44;;;;;;;17.15;12.32;;;;;;;-144.43;100.00;64487.81;4995918;28;20038;-62
2022/03/23 10:03:12;;;;;;;18.30;12.15;;;;;;;-144.43;100.00;64487.81;5013452;28;20030;-61
2022/03/23 10:06:11;;;;;;;19.15;12.68;;;;;;;-144.43;100.00;64487.81;5012854;28;20025;-62
2022/03/23 10:09:10;;;;;;;22.70;12.48;;;;;;;-144.43;100.00;64487.81;5013424;28;20121;-62
2022/03/23 10:12:09;;;;;;;18.70;12.60;;;;;;;-144.43;100.00;64487.81;5013190;28;20508;-60
2022/03/23 10:15:13;;;;;;;18.63;12.95;;;;;;;-144.43;100.00;64487.81;5011553;28;20026;-61
2022/03/23 10:17:58;;;;;;;;;;;;;;;-144.43;100.00;64487.81;5013692;28;20033;-61
2022/03/23 10:20:24;;;;;;;20.88;11.95;;;;;;;-144.43;100.00;64487.81;5012997;28;19920;-61
2022/03/23 10:22:57;;;;;;;21.20;12.57;;;;;;;-144.43;100.00;64487.81;5013201;28;20025;-61
2022/03/23 10:25:35;;;;;;;20.17;11.75;;;;;;;-144.43;100.00;64487.81;4994811;28;20448;-61
2022/03/23 10:28:00;;;;;;;18.65;11.15;;;;;;;-144.43;100.00;64487.81;5013007;28;20029;-61
2022/03/23 10:30:33;;;;;;;17.15;12.68;;;;;;;-144.43;100.00;64487.81;4995172;28;20540;-62
2022/03/23 10:32:59;;;;;;;18.02;12.63;;;;;;;-144.43;100.00;64487.81;5010776;28;20036;-61
2022/03/23 10:35:59;;;;;;;19.38;12.38;;;;;;;-144.43;100.00;64487.81;4992774;28;20022;-62
2022/03/23 10:38:28;;;;;;;16.88;11.88;;;;;;;-144.43;100.00;64487.81;4968934;28;20113;-62
2022/03/23 10:40:56;;;;;;;17.25;12.20;;;;;;;-144.43;100.00;64487.81;4992551;28;20513;-61
2022/03/23 10:43:35;;;;;;;20.15;12.63;;;;;;;-144.43;100.00;64487.81;4974715;28;20113;-62
2022/03/23 10:46:11;;;;;;;17.92;12.02;;;;;;;-144.43;100.00;64487.81;4992735;28;20034;-62
2022/03/23 10:49:06;;;;;;;18.40;11.93;;;;;;;-144.43;100.00;64487.81;4993183;28;20077;-62
2022/03/23 10:51:36;;;;;;;16.08;11.77;;;;;;;-144.43;100.00;64487.81;4993149;28;20478;-63
2022/03/23 10:54:36;;;;;;;16.95;12.40;;;;;;;-144.43;100.00;64487.81;4992937;28;20022;-62
2022/03/23 10:57:04;;;;;;;17.65;12.57;;;;;;;-144.43;100.00;64487.81;4983788;28;20096;-62
2022/03/23 10:59:29;;;;;;;18.27;11.48;;;;;;;-144.43;100.00;64487.81;5012449;28;20531;-62
2022/03/23 11:01:58;;;;;;;16.85;12.35;;;;;;;-144.43;100.00;64487.81;4994834;28;20060;-61
2022/03/23 11:04:33;;;;;;;16.27;12.50;;;;;;;-144.43;100.00;64487.81;5011868;28;20049;-62
2022/03/23 11:07:31;;;;;;;16.35;12.27;;;;;;;-144.43;100.00;64487.81;5012414;28;20499;-62
2022/03/23 11:15:51;;;;;;;16.98;11.98;;;;;;;-144.43;100.00;64487.81;5011828;28;20045;-62
2022/03/23 11:18:20;;;;;;;17.98;12.45;;;;;;;-144.43;100.00;64487.81;5011230;28;20156;-62
2022/03/23 11:21:01;;;;;;;16.50;11.95;;;;;;;-144.43;100.00;64487.81;5010765;28;20026;-62
2022/03/23 11:23:28;;;;;;;18.67;13.23;;;;;;;-144.43;100.00;64487.81;4994303;28;20040;-62
2022/03/23 11:25:56;;;;;;;14.73;11.75;;;;;;;-144.43;100.00;64487.81;5011831;28;20029;-63
2022/03/23 11:28:22;;;;;;;13.63;11.02;;;;;;;-144.43;100.00;64487.81;5012099;28;20038;-62
2022/03/23 11:30:49;;;;;;;17.20;11.73;;;;;;;-144.43;100.00;64487.81;5021793;28;20534;-63
2022/03/23 11:33:41;;;;;;;14.45;11.15;;;;;;;-144.43;100.00;64487.81;4996641;28;20389;-62
2022/03/23 11:36:28;;;;;;;14.77;10.05;;;;;;;-144.43;100.00;64487.81;5010897;28;20386;-62
2022/03/23 11:38:59;;;;;;;17.75;11.25;;;;;;;-144.43;100.00;64487.81;5011940;28;20030;-63
2022/03/23 11:41:25;;;;;;;13.13;10.32;;;;;;;-144.43;100.00;64487.81;5011603;28;20072;-63